sensor_id;sensor_type;location;lat;lon;timestamp;P1;durP1;ratioP1;P2;durP2;ratioP2
53618;SDS011;68717;53.040;18.488;2023-04-12T00:00:10;20.67;;;12.63;;
53618;SDS011;68717;53.040;18.488;2023-04-12T00:00:43;20.02;;;12.32;;
53618;SDS011;68717;53.040;18.488;2023-04-12T00:01:00;18.63;;;11.75;;
53618;SDS011;68717;53.040;18.488;2023-04-12T00:01:13;18.02;;;11.20;;
53618;SDS011;68717;53.040;18.488;2023-04-12T00:01:26;17.52;;;10.85;;
53618;SDS011;68717;53.040;18.488;2023-04-12T00:01:39;18.17;;;10.80;;
53618;SDS011;68717;53.040;18.488;2023-04-12T00:01:52;17.63;;;10.90;;
53618;SDS011;68717;53.040;18.488;2023-04-12T00:02:05;17.98;;;11.15;;
53618;SDS011;68717;53.040;18.488;2023-04-12T00:02:18;17.83;;;11.05;;
53618;SDS011;68717;53.040;18.488;2023-04-12T00:02:31;18.40;;;11.07;;
53618;SDS011;68717;53.040;18.488;2023-04-12T00:02:46;18.50;;;11.30;;
53618;SDS011;68717;53.040;18.488;2023-04-12T00:03:05;19.08;;;11.85;;
53618;SDS011;68717;53.040;18.488;2023-04-12T00:03:21;22.30;;;12.98;;
53618;SDS011;68717;53.040;18.488;2023-04-12T00:03:34;25.25;;;14.00;;
53618;SDS011;68717;53.040;18.488;2023-04-12T00:03:47;26.60;;;14.45;;
53618;SDS011;68717;53.040;18.488;2023-04-12T00:04:02;26.55;;;14.25;;
53618;SDS011;68717;53.040;18.488;2023-04-12T00:04:17;24.20;;;13.32;;
53618;SDS011;68717;53.040;18.488;2023-04-12T00:04:29;22.83;;;12.60;;
53618;SDS011;68717;53.040;18.488;2023-04-12T00:04:45;19.63;;;11.90;;
53618;SDS011;68717;53.040;18.488;2023-04-12T00:05:06;18.23;;;12.10;;
53618;SDS011;68717;53.040;18.488;2023-04-12T00:05:20;19.63;;;12.15;;
53618;SDS011;68717;53.040;18.488;2023-04-12T00:05:34;19.70;;;12.20;;
53618;SDS011;68717;53.040;18.488;2023-04-12T00:05:47;19.35;;;12.20;;
53618;SDS011;68717;53.040;18.488;2023-04-12T00:06:06;20.20;;;12.27;;
53618;SDS011;68717;53.040;18.488;2023-04-12T00:06:21;20.55;;;12.52;;
53618;SDS011;68717;53.040;18.488;2023-04-12T00:06:43;20.30;;;12.63;;
53618;SDS011;68717;53.040;18.488;2023-04-12T00:06:59;20.25;;;12.45;;
53618;SDS011;68717;53.040;18.488;2023-04-12T00:07:12;22.42;;;13.05;;
53618;SDS011;68717;53.040;18.488;2023-04-12T00:07:25;23.45;;;13.55;;
53618;SDS011;68717;53.040;18.488;2023-04-12T00:07:38;22.02;;;13.10;;
53618;SDS011;68717;53.040;18.488;2023-04-12T00:07:51;22.20;;;13.40;;
53618;SDS011;68717;53.040;18.488;2023-04-12T00:08:04;23.45;;;13.60;;
53618;SDS011;68717;53.040;18.488;2023-04-12T00:08:17;25.20;;;13.90;;
53618;SDS011;68717;53.040;18.488;2023-04-12T00:08:35;27.08;;;14.25;;
53618;SDS011;68717;53.040;18.488;2023-04-12T00:08:49;26.98;;;14.25;;
53618;SDS011;68717;53.040;18.488;2023-04-12T00:09:02;26.75;;;14.43;;
53618;SDS011;68717;53.040;18.488;2023-04-12T00:09:15;25.17;;;14.25;;
53618;SDS011;68717;53.040;18.488;2023-04-12T00:09:28;24.25;;;13.60;;
53618;SDS011;68717;53.040;18.488;2023-04-12T00:09:41;24.48;;;13.13;;
53618;SDS011;68717;53.040;18.488;2023-04-12T00:09:54;24.13;;;13.15;;
53618;SDS011;68717;53.040;18.488;2023-04-12T00:10:07;24.42;;;13.90;;
53618;SDS011;68717;53.040;18.488;2023-04-12T00:10:21;24.55;;;14.15;;
53618;SDS011;68717;53.040;18.488;2023-04-12T00:10:35;25.98;;;14.00;;
53618;SDS011;68717;53.040;18.488;2023-04-12T00:10:47;25.38;;;13.60;;
53618;SDS011;68717;53.040;18.488;2023-04-12T00:11:00;23.90;;;13.43;;
53618;SDS011;68717;53.040;18.488;2023-04-12T00:11:13;27.95;;;13.98;;
53618;SDS011;68717;53.040;18.488;2023-04-12T00:11:26;28.55;;;14.30;;
53618;SDS011;68717;53.040;18.488;2023-04-12T00:11:39;25.70;;;13.70;;
53618;SDS011;68717;53.040;18.488;2023-04-12T00:11:52;25.15;;;13.57;;
53618;SDS011;68717;53.040;18.488;2023-04-12T00:12:05;23.15;;;13.35;;
53618;SDS011;68717;53.040;18.488;2023-04-12T00:12:19;20.55;;;12.57;;
53618;SDS011;68717;53.040;18.488;2023-04-12T00:12:32;21.55;;;12.43;;
53618;SDS011;68717;53.040;18.488;2023-04-12T00:12:44;22.45;;;12.35;;
53618;SDS011;68717;53.040;18.488;2023-04-12T00:12:57;24.17;;;12.52;;
53618;SDS011;68717;53.040;18.488;2023-04-12T00:13:10;23.92;;;12.50;;
53618;SDS011;68717;53.040;18.488;2023-04-12T00:13:23;24.00;;;12.85;;
53618;SDS011;68717;53.040;18.488;2023-04-12T00:13:35;24.88;;;13.25;;
53618;SDS011;68717;53.040;18.488;2023-04-12T00:13:48;27.90;;;14.57;;
53618;SDS011;68717;53.040;18.488;2023-04-12T00:14:02;29.85;;;14.98;;
53618;SDS011;68717;53.040;18.488;2023-04-12T00:14:15;28.40;;;14.75;;
53618;SDS011;68717;53.040;18.488;2023-04-12T00:14:28;27.50;;;14.80;;
53618;SDS011;68717;53.040;18.488;2023-04-12T00:14:40;26.85;;;14.95;;
53618;SDS011;68717;53.040;18.488;2023-04-12T00:14:53;27.33;;;14.85;;
53618;SDS011;68717;53.040;18.488;2023-04-12T00:15:07;28.10;;;15.10;;
53618;SDS011;68717;53.040;18.488;2023-04-12T00:15:20;29.33;;;15.65;;
53618;SDS011;68717;53.040;18.488;2023-04-12T00:15:33;30.95;;;15.82;;
53618;SDS011;68717;53.040;18.488;2023-04-12T00:15:45;31.33;;;15.65;;
53618;SDS011;68717;53.040;18.488;2023-04-12T00:15:58;30.85;;;15.70;;
53618;SDS011;68717;53.040;18.488;2023-04-12T00:16:11;33.63;;;16.25;;
53618;SDS011;68717;53.040;18.488;2023-04-12T00:16:26;33.75;;;16.20;;
53618;SDS011;68717;53.040;18.488;2023-04-12T00:16:40;31.92;;;16.05;;
53618;SDS011;68717;53.040;18.488;2023-04-12T00:16:54;31.67;;;16.40;;
53618;SDS011;68717;53.040;18.488;2023-04-12T00:17:07;32.58;;;16.35;;
53618;SDS011;68717;53.040;18.488;2023-04-12T00:17:19;33.08;;;16.50;;
53618;SDS011;68717;53.040;18.488;2023-04-12T00:17:32;33.33;;;16.80;;
53618;SDS011;68717;53.040;18.488;2023-04-12T00:17:45;34.97;;;16.98;;
53618;SDS011;68717;53.040;18.488;2023-04-12T00:17:58;33.25;;;16.95;;
53618;SDS011;68717;53.040;18.488;2023-04-12T00:18:11;33.13;;;17.10;;
53618;SDS011;68717;53.040;18.488;2023-04-12T00:18:25;35.17;;;17.73;;
53618;SDS011;68717;53.040;18.488;2023-04-12T00:18:38;37.10;;;18.20;;
53618;SDS011;68717;53.040;18.488;2023-04-12T00:18:51;36.50;;;17.80;;
53618;SDS011;68717;53.040;18.488;2023-04-12T00:19:03;32.70;;;16.80;;
53618;SDS011;68717;53.040;18.488;2023-04-12T00:19:18;32.55;;;16.88;;
53618;SDS011;68717;53.040;18.488;2023-04-12T00:19:30;34.47;;;17.27;;
53618;SDS011;68717;53.040;18.488;2023-04-12T00:19:43;33.63;;;16.88;;
53618;SDS011;68717;53.040;18.488;2023-04-12T00:19:56;34.72;;;16.92;;
53618;SDS011;68717;53.040;18.488;2023-04-12T00:20:09;35.47;;;16.90;;
53618;SDS011;68717;53.040;18.488;2023-04-12T00:20:23;33.08;;;16.25;;
53618;SDS011;68717;53.040;18.488;2023-04-12T00:20:37;30.70;;;15.63;;
53618;SDS011;68717;53.040;18.488;2023-04-12T00:20:49;30.52;;;15.82;;
53618;SDS011;68717;53.040;18.488;2023-04-12T00:21:03;31.45;;;16.05;;
53618;SDS011;68717;53.040;18.488;2023-04-12T00:21:16;29.52;;;15.77;;
53618;SDS011;68717;53.040;18.488;2023-04-12T00:21:30;30.58;;;16.02;;
53618;SDS011;68717;53.040;18.488;2023-04-12T00:21:43;31.17;;;16.52;;
53618;SDS011;68717;53.040;18.488;2023-04-12T00:21:57;29.52;;;16.52;;
53618;SDS011;68717;53.040;18.488;2023-04-12T00:22:10;29.58;;;15.98;;
53618;SDS011;68717;53.040;18.488;2023-04-12T00:22:23;30.35;;;15.80;;
53618;SDS011;68717;53.040;18.488;2023-04-12T00:22:37;28.45;;;15.20;;
53618;SDS011;68717;53.040;18.488;2023-04-12T00:22:50;26.88;;;14.75;;
53618;SDS011;68717;53.040;18.488;2023-04-12T00:23:05;26.67;;;14.57;;
53618;SDS011;68717;53.040;18.488;2023-04-12T00:23:18;27.65;;;14.60;;
53618;SDS011;68717;53.040;18.488;2023-04-12T00:23:31;26.83;;;14.73;;
53618;SDS011;68717;53.040;18.488;2023-04-12T00:23:44;25.58;;;14.77;;
53618;SDS011;68717;53.040;18.488;2023-04-12T00:23:58;26.02;;;14.45;;
53618;SDS011;68717;53.040;18.488;2023-04-12T00:24:11;26.92;;;14.60;;
53618;SDS011;68717;53.040;18.488;2023-04-12T00:24:23;27.48;;;15.13;;
53618;SDS011;68717;53.040;18.488;2023-04-12T00:24:37;29.15;;;15.73;;
53618;SDS011;68717;53.040;18.488;2023-04-12T00:24:50;29.73;;;15.40;;
53618;SDS011;68717;53.040;18.488;2023-04-12T00:25:04;28.20;;;14.98;;
53618;SDS011;68717;53.040;18.488;2023-04-12T00:25:17;28.90;;;15.15;;
53618;SDS011;68717;53.040;18.488;2023-04-12T00:25:30;30.55;;;15.32;;
53618;SDS011;68717;53.040;18.488;2023-04-12T00:25:42;28.50;;;14.75;;
53618;SDS011;68717;53.040;18.488;2023-04-12T00:25:55;27.63;;;14.60;;
53618;SDS011;68717;53.040;18.488;2023-04-12T00:26:08;25.02;;;14.30;;
53618;SDS011;68717;53.040;18.488;2023-04-12T00:26:20;24.25;;;13.98;;
53618;SDS011;68717;53.040;18.488;2023-04-12T00:26:36;24.92;;;14.13;;
53618;SDS011;68717;53.040;18.488;2023-04-12T00:26:49;24.77;;;14.05;;
53618;SDS011;68717;53.040;18.488;2023-04-12T00:27:01;25.13;;;14.15;;
53618;SDS011;68717;53.040;18.488;2023-04-12T00:27:15;25.42;;;14.30;;
53618;SDS011;68717;53.040;18.488;2023-04-12T00:27:27;24.17;;;13.88;;
53618;SDS011;68717;53.040;18.488;2023-04-12T00:27:40;23.38;;;13.77;;
53618;SDS011;68717;53.040;18.488;2023-04-12T00:27:53;24.15;;;14.18;;
53618;SDS011;68717;53.040;18.488;2023-04-12T00:28:07;24.75;;;14.18;;
53618;SDS011;68717;53.040;18.488;2023-04-12T00:28:20;24.27;;;13.75;;
53618;SDS011;68717;53.040;18.488;2023-04-12T00:28:32;23.85;;;13.30;;
53618;SDS011;68717;53.040;18.488;2023-04-12T00:28:45;23.92;;;13.25;;
53618;SDS011;68717;53.040;18.488;2023-04-12T00:28:57;24.77;;;13.07;;
53618;SDS011;68717;53.040;18.488;2023-04-12T00:29:10;23.65;;;12.95;;
53618;SDS011;68717;53.040;18.488;2023-04-12T00:29:23;20.60;;;12.80;;
53618;SDS011;68717;53.040;18.488;2023-04-12T00:29:35;19.95;;;12.43;;
53618;SDS011;68717;53.040;18.488;2023-04-12T00:29:49;19.38;;;12.00;;
53618;SDS011;68717;53.040;18.488;2023-04-12T00:30:01;21.98;;;12.57;;
53618;SDS011;68717;53.040;18.488;2023-04-12T00:30:15;23.80;;;13.13;;
53618;SDS011;68717;53.040;18.488;2023-04-12T00:30:28;23.58;;;13.20;;
53618;SDS011;68717;53.040;18.488;2023-04-12T00:30:41;22.08;;;12.82;;
53618;SDS011;68717;53.040;18.488;2023-04-12T00:30:54;19.23;;;12.07;;
53618;SDS011;68717;53.040;18.488;2023-04-12T00:31:07;18.17;;;11.68;;
53618;SDS011;68717;53.040;18.488;2023-04-12T00:31:20;20.77;;;12.52;;
53618;SDS011;68717;53.040;18.488;2023-04-12T00:31:33;21.02;;;12.73;;
53618;SDS011;68717;53.040;18.488;2023-04-12T00:31:46;21.83;;;13.05;;
53618;SDS011;68717;53.040;18.488;2023-04-12T00:31:59;22.08;;;13.45;;
53618;SDS011;68717;53.040;18.488;2023-04-12T00:32:12;24.30;;;14.00;;
53618;SDS011;68717;53.040;18.488;2023-04-12T00:32:25;25.80;;;14.18;;
53618;SDS011;68717;53.040;18.488;2023-04-12T00:32:38;24.40;;;13.23;;
53618;SDS011;68717;53.040;18.488;2023-04-12T00:32:52;23.25;;;12.65;;
53618;SDS011;68717;53.040;18.488;2023-04-12T00:33:04;23.27;;;12.75;;
53618;SDS011;68717;53.040;18.488;2023-04-12T00:33:17;23.77;;;13.00;;
53618;SDS011;68717;53.040;18.488;2023-04-12T00:33:32;23.17;;;13.23;;
53618;SDS011;68717;53.040;18.488;2023-04-12T00:33:44;22.30;;;13.38;;
53618;SDS011;68717;53.040;18.488;2023-04-12T00:33:57;22.33;;;13.68;;
53618;SDS011;68717;53.040;18.488;2023-04-12T00:34:10;21.90;;;13.52;;
53618;SDS011;68717;53.040;18.488;2023-04-12T00:34:24;21.70;;;13.23;;
53618;SDS011;68717;53.040;18.488;2023-04-12T00:34:36;22.63;;;13.13;;
53618;SDS011;68717;53.040;18.488;2023-04-12T00:34:49;21.85;;;12.93;;
53618;SDS011;68717;53.040;18.488;2023-04-12T00:35:01;21.27;;;12.70;;
53618;SDS011;68717;53.040;18.488;2023-04-12T00:35:14;21.27;;;12.93;;
53618;SDS011;68717;53.040;18.488;2023-04-12T00:35:27;22.38;;;13.68;;
53618;SDS011;68717;53.040;18.488;2023-04-12T00:35:41;22.58;;;13.65;;
53618;SDS011;68717;53.040;18.488;2023-04-12T00:35:53;23.48;;;13.40;;
53618;SDS011;68717;53.040;18.488;2023-04-12T00:36:06;22.90;;;13.30;;
53618;SDS011;68717;53.040;18.488;2023-04-12T00:36:20;22.48;;;13.32;;
53618;SDS011;68717;53.040;18.488;2023-04-12T00:36:33;23.98;;;13.82;;
53618;SDS011;68717;53.040;18.488;2023-04-12T00:36:46;23.60;;;13.80;;
53618;SDS011;68717;53.040;18.488;2023-04-12T00:36:59;22.75;;;13.48;;
53618;SDS011;68717;53.040;18.488;2023-04-12T00:37:13;21.55;;;13.20;;
53618;SDS011;68717;53.040;18.488;2023-04-12T00:37:25;21.10;;;13.02;;
53618;SDS011;68717;53.040;18.488;2023-04-12T00:37:38;21.63;;;13.05;;
53618;SDS011;68717;53.040;18.488;2023-04-12T00:37:51;21.80;;;13.10;;
53618;SDS011;68717;53.040;18.488;2023-04-12T00:38:03;20.42;;;12.57;;
53618;SDS011;68717;53.040;18.488;2023-04-12T00:38:21;20.80;;;12.70;;
53618;SDS011;68717;53.040;18.488;2023-04-12T00:38:34;20.13;;;12.65;;
53618;SDS011;68717;53.040;18.488;2023-04-12T00:38:47;20.02;;;12.50;;
53618;SDS011;68717;53.040;18.488;2023-04-12T00:39:00;20.38;;;12.93;;
53618;SDS011;68717;53.040;18.488;2023-04-12T00:39:12;19.42;;;12.75;;
53618;SDS011;68717;53.040;18.488;2023-04-12T00:39:25;19.82;;;12.44;;
53618;SDS011;68717;53.040;18.488;2023-04-12T00:39:38;20.38;;;12.52;;
53618;SDS011;68717;53.040;18.488;2023-04-12T00:39:52;19.73;;;12.20;;
53618;SDS011;68717;53.040;18.488;2023-04-12T00:40:05;18.92;;;11.73;;
53618;SDS011;68717;53.040;18.488;2023-04-12T00:40:19;19.08;;;11.63;;
53618;SDS011;68717;53.040;18.488;2023-04-12T00:40:32;19.25;;;11.68;;
53618;SDS011;68717;53.040;18.488;2023-04-12T00:40:45;19.33;;;12.18;;
53618;SDS011;68717;53.040;18.488;2023-04-12T00:40:57;19.90;;;12.25;;
53618;SDS011;68717;53.040;18.488;2023-04-12T00:41:10;19.90;;;12.25;;
53618;SDS011;68717;53.040;18.488;2023-04-12T00:41:24;20.17;;;12.32;;
53618;SDS011;68717;53.040;18.488;2023-04-12T00:41:38;20.83;;;12.50;;
53618;SDS011;68717;53.040;18.488;2023-04-12T00:41:50;20.73;;;12.50;;
53618;SDS011;68717;53.040;18.488;2023-04-12T00:42:03;19.38;;;12.13;;
53618;SDS011;68717;53.040;18.488;2023-04-12T00:42:16;19.25;;;12.30;;
53618;SDS011;68717;53.040;18.488;2023-04-12T00:42:30;18.73;;;12.13;;
53618;SDS011;68717;53.040;18.488;2023-04-12T00:42:43;19.40;;;12.00;;
53618;SDS011;68717;53.040;18.488;2023-04-12T00:42:55;19.65;;;12.02;;
53618;SDS011;68717;53.040;18.488;2023-04-12T00:43:08;19.23;;;12.27;;
53618;SDS011;68717;53.040;18.488;2023-04-12T00:43:29;20.20;;;12.48;;
53618;SDS011;68717;53.040;18.488;2023-04-12T00:43:42;20.38;;;12.50;;
53618;SDS011;68717;53.040;18.488;2023-04-12T00:43:56;19.60;;;12.10;;
53618;SDS011;68717;53.040;18.488;2023-04-12T00:44:08;19.70;;;12.07;;
53618;SDS011;68717;53.040;18.488;2023-04-12T00:44:21;18.83;;;12.02;;
53618;SDS011;68717;53.040;18.488;2023-04-12T00:44:34;19.52;;;12.18;;
53618;SDS011;68717;53.040;18.488;2023-04-12T00:44:47;20.25;;;12.02;;
53618;SDS011;68717;53.040;18.488;2023-04-12T00:44:59;19.65;;;11.88;;
53618;SDS011;68717;53.040;18.488;2023-04-12T00:45:12;18.80;;;11.85;;
53618;SDS011;68717;53.040;18.488;2023-04-12T00:45:26;19.63;;;12.07;;
53618;SDS011;68717;53.040;18.488;2023-04-12T00:45:39;20.30;;;12.18;;
53618;SDS011;68717;53.040;18.488;2023-04-12T00:45:52;19.90;;;12.10;;
53618;SDS011;68717;53.040;18.488;2023-04-12T00:46:07;20.20;;;12.30;;
53618;SDS011;68717;53.040;18.488;2023-04-12T00:46:20;20.17;;;12.45;;
53618;SDS011;68717;53.040;18.488;2023-04-12T00:46:33;19.83;;;12.40;;
53618;SDS011;68717;53.040;18.488;2023-04-12T00:46:46;20.50;;;12.60;;
53618;SDS011;68717;53.040;18.488;2023-04-12T00:47:00;21.63;;;13.20;;
53618;SDS011;68717;53.040;18.488;2023-04-12T00:47:14;22.70;;;13.73;;
53618;SDS011;68717;53.040;18.488;2023-04-12T00:47:27;22.15;;;13.60;;
53618;SDS011;68717;53.040;18.488;2023-04-12T00:47:40;22.42;;;13.55;;
53618;SDS011;68717;53.040;18.488;2023-04-12T00:47:54;22.52;;;13.38;;
53618;SDS011;68717;53.040;18.488;2023-04-12T00:48:07;22.02;;;13.00;;
53618;SDS011;68717;53.040;18.488;2023-04-12T00:48:20;20.92;;;12.70;;
53618;SDS011;68717;53.040;18.488;2023-04-12T00:48:35;21.15;;;12.93;;
53618;SDS011;68717;53.040;18.488;2023-04-12T00:48:48;20.45;;;12.70;;
53618;SDS011;68717;53.040;18.488;2023-04-12T00:49:01;20.67;;;12.65;;
53618;SDS011;68717;53.040;18.488;2023-04-12T00:49:14;20.85;;;12.75;;
53618;SDS011;68717;53.040;18.488;2023-04-12T00:49:27;21.00;;;13.10;;
53618;SDS011;68717;53.040;18.488;2023-04-12T00:49:41;21.70;;;13.52;;
53618;SDS011;68717;53.040;18.488;2023-04-12T00:49:54;22.17;;;13.57;;
53618;SDS011;68717;53.040;18.488;2023-04-12T00:50:09;21.95;;;13.88;;
53618;SDS011;68717;53.040;18.488;2023-04-12T00:50:22;25.02;;;14.85;;
53618;SDS011;68717;53.040;18.488;2023-04-12T00:50:35;27.35;;;15.43;;
53618;SDS011;68717;53.040;18.488;2023-04-12T00:50:48;28.17;;;16.50;;
53618;SDS011;68717;53.040;18.488;2023-04-12T00:51:01;30.00;;;17.00;;
53618;SDS011;68717;53.040;18.488;2023-04-12T00:51:15;32.28;;;17.83;;
53618;SDS011;68717;53.040;18.488;2023-04-12T00:51:30;33.45;;;18.15;;
53618;SDS011;68717;53.040;18.488;2023-04-12T00:51:44;33.33;;;17.75;;
53618;SDS011;68717;53.040;18.488;2023-04-12T00:51:57;32.50;;;17.58;;
53618;SDS011;68717;53.040;18.488;2023-04-12T00:52:14;31.98;;;17.05;;
53618;SDS011;68717;53.040;18.488;2023-04-12T00:52:29;32.92;;;17.67;;
53618;SDS011;68717;53.040;18.488;2023-04-12T00:52:45;35.28;;;19.15;;
53618;SDS011;68717;53.040;18.488;2023-04-12T00:52:58;35.58;;;19.08;;
53618;SDS011;68717;53.040;18.488;2023-04-12T00:53:11;33.45;;;18.55;;
53618;SDS011;68717;53.040;18.488;2023-04-12T00:53:24;33.60;;;18.27;;
53618;SDS011;68717;53.040;18.488;2023-04-12T00:53:38;33.83;;;18.70;;
53618;SDS011;68717;53.040;18.488;2023-04-12T00:53:51;36.25;;;19.35;;
53618;SDS011;68717;53.040;18.488;2023-04-12T00:54:08;32.92;;;18.00;;
53618;SDS011;68717;53.040;18.488;2023-04-12T00:54:22;28.98;;;17.13;;
53618;SDS011;68717;53.040;18.488;2023-04-12T00:54:36;29.48;;;17.00;;
53618;SDS011;68717;53.040;18.488;2023-04-12T00:54:49;30.10;;;16.48;;
53618;SDS011;68717;53.040;18.488;2023-04-12T00:55:05;27.75;;;15.63;;
53618;SDS011;68717;53.040;18.488;2023-04-12T00:55:18;25.88;;;15.23;;
53618;SDS011;68717;53.040;18.488;2023-04-12T00:55:31;25.95;;;15.23;;
53618;SDS011;68717;53.040;18.488;2023-04-12T00:55:44;24.33;;;14.68;;
53618;SDS011;68717;53.040;18.488;2023-04-12T00:55:57;24.50;;;14.55;;
53618;SDS011;68717;53.040;18.488;2023-04-12T00:56:10;23.70;;;13.95;;
53618;SDS011;68717;53.040;18.488;2023-04-12T00:56:24;22.30;;;13.77;;
53618;SDS011;68717;53.040;18.488;2023-04-12T00:56:39;21.38;;;13.55;;
53618;SDS011;68717;53.040;18.488;2023-04-12T00:56:52;21.13;;;13.25;;
53618;SDS011;68717;53.040;18.488;2023-04-12T00:57:05;21.27;;;13.23;;
53618;SDS011;68717;53.040;18.488;2023-04-12T00:57:17;21.38;;;13.35;;
53618;SDS011;68717;53.040;18.488;2023-04-12T00:57:31;22.80;;;13.68;;
53618;SDS011;68717;53.040;18.488;2023-04-12T00:57:48;22.38;;;13.57;;
53618;SDS011;68717;53.040;18.488;2023-04-12T00:58:00;21.55;;;13.52;;
53618;SDS011;68717;53.040;18.488;2023-04-12T00:58:14;23.25;;;13.57;;
53618;SDS011;68717;53.040;18.488;2023-04-12T00:58:28;24.23;;;13.77;;
53618;SDS011;68717;53.040;18.488;2023-04-12T00:58:40;23.95;;;13.68;;
53618;SDS011;68717;53.040;18.488;2023-04-12T00:58:54;22.05;;;13.57;;
53618;SDS011;68717;53.040;18.488;2023-04-12T00:59:07;23.00;;;14.00;;
53618;SDS011;68717;53.040;18.488;2023-04-12T00:59:20;24.63;;;14.77;;
53618;SDS011;68717;53.040;18.488;2023-04-12T00:59:33;26.27;;;14.75;;
53618;SDS011;68717;53.040;18.488;2023-04-12T00:59:45;26.90;;;15.05;;
53618;SDS011;68717;53.040;18.488;2023-04-12T00:59:58;26.73;;;15.05;;
53618;SDS011;68717;53.040;18.488;2023-04-12T01:00:11;26.10;;;15.07;;
53618;SDS011;68717;53.040;18.488;2023-04-12T01:00:24;24.60;;;14.68;;
53618;SDS011;68717;53.040;18.488;2023-04-12T01:00:39;24.35;;;14.98;;
53618;SDS011;68717;53.040;18.488;2023-04-12T01:00:51;25.40;;;15.48;;
53618;SDS011;68717;53.040;18.488;2023-04-12T01:01:05;25.73;;;15.90;;
53618;SDS011;68717;53.040;18.488;2023-04-12T01:01:18;27.52;;;16.20;;
53618;SDS011;68717;53.040;18.488;2023-04-12T01:01:32;29.48;;;16.50;;
53618;SDS011;68717;53.040;18.488;2023-04-12T01:01:45;28.42;;;16.48;;
53618;SDS011;68717;53.040;18.488;2023-04-12T01:02:00;25.88;;;16.00;;
53618;SDS011;68717;53.040;18.488;2023-04-12T01:02:14;25.20;;;15.95;;
53618;SDS011;68717;53.040;18.488;2023-04-12T01:02:28;25.20;;;15.88;;
53618;SDS011;68717;53.040;18.488;2023-04-12T01:02:44;26.50;;;16.05;;
53618;SDS011;68717;53.040;18.488;2023-04-12T01:02:59;27.70;;;16.15;;
53618;SDS011;68717;53.040;18.488;2023-04-12T01:03:15;27.08;;;16.50;;
53618;SDS011;68717;53.040;18.488;2023-04-12T01:03:36;27.13;;;16.05;;
53618;SDS011;68717;53.040;18.488;2023-04-12T01:03:54;26.48;;;15.15;;
53618;SDS011;68717;53.040;18.488;2023-04-12T01:04:12;28.90;;;15.85;;
53618;SDS011;68717;53.040;18.488;2023-04-12T01:04:25;29.80;;;16.77;;
53618;SDS011;68717;53.040;18.488;2023-04-12T01:04:38;28.77;;;16.98;;
53618;SDS011;68717;53.040;18.488;2023-04-12T01:04:55;28.67;;;16.70;;
53618;SDS011;68717;53.040;18.488;2023-04-12T01:05:09;29.08;;;16.17;;
53618;SDS011;68717;53.040;18.488;2023-04-12T01:05:25;26.77;;;15.75;;
53618;SDS011;68717;53.040;18.488;2023-04-12T01:05:39;24.77;;;16.13;;
53618;SDS011;68717;53.040;18.488;2023-04-12T01:06:03;23.63;;;15.15;;
53618;SDS011;68717;53.040;18.488;2023-04-12T01:06:27;25.98;;;15.60;;
53618;SDS011;68717;53.040;18.488;2023-04-12T01:06:52;27.10;;;16.23;;
53618;SDS011;68717;53.040;18.488;2023-04-12T01:07:18;29.42;;;16.58;;
53618;SDS011;68717;53.040;18.488;2023-04-12T01:07:39;28.42;;;16.60;;
53618;SDS011;68717;53.040;18.488;2023-04-12T01:08:01;28.40;;;15.85;;
53618;SDS011;68717;53.040;18.488;2023-04-12T01:08:30;26.85;;;16.05;;
53618;SDS011;68717;53.040;18.488;2023-04-12T01:08:52;29.10;;;16.35;;
53618;SDS011;68717;53.040;18.488;2023-04-12T01:09:12;26.63;;;15.55;;
53618;SDS011;68717;53.040;18.488;2023-04-12T01:09:33;26.35;;;15.80;;
53618;SDS011;68717;53.040;18.488;2023-04-12T01:09:55;26.30;;;16.10;;
53618;SDS011;68717;53.040;18.488;2023-04-12T01:10:18;28.58;;;16.15;;
53618;SDS011;68717;53.040;18.488;2023-04-12T01:10:42;27.58;;;16.27;;
53618;SDS011;68717;53.040;18.488;2023-04-12T01:11:02;29.50;;;17.35;;
53618;SDS011;68717;53.040;18.488;2023-04-12T01:11:22;28.52;;;16.70;;
53618;SDS011;68717;53.040;18.488;2023-04-12T01:11:43;28.05;;;17.02;;
53618;SDS011;68717;53.040;18.488;2023-04-12T01:12:06;30.20;;;17.42;;
53618;SDS011;68717;53.040;18.488;2023-04-12T01:12:31;27.05;;;16.55;;
53618;SDS011;68717;53.040;18.488;2023-04-12T01:12:51;27.45;;;16.60;;
53618;SDS011;68717;53.040;18.488;2023-04-12T01:13:20;27.08;;;16.27;;
53618;SDS011;68717;53.040;18.488;2023-04-12T01:13:44;29.05;;;16.88;;
53618;SDS011;68717;53.040;18.488;2023-04-12T01:14:04;31.42;;;17.65;;
53618;SDS011;68717;53.040;18.488;2023-04-12T01:14:26;28.90;;;16.77;;
53618;SDS011;68717;53.040;18.488;2023-04-12T01:14:46;27.80;;;16.20;;
53618;SDS011;68717;53.040;18.488;2023-04-12T01:15:10;26.08;;;16.08;;
53618;SDS011;68717;53.040;18.488;2023-04-12T01:15:25;27.02;;;15.65;;
53618;SDS011;68717;53.040;18.488;2023-04-12T01:15:45;26.30;;;15.07;;
53618;SDS011;68717;53.040;18.488;2023-04-12T01:16:03;24.63;;;14.88;;
53618;SDS011;68717;53.040;18.488;2023-04-12T01:16:23;23.80;;;14.88;;
53618;SDS011;68717;53.040;18.488;2023-04-12T01:16:43;26.48;;;14.93;;
53618;SDS011;68717;53.040;18.488;2023-04-12T01:17:03;25.90;;;15.30;;
53618;SDS011;68717;53.040;18.488;2023-04-12T01:17:19;26.23;;;15.30;;
53618;SDS011;68717;53.040;18.488;2023-04-12T01:17:37;26.40;;;15.02;;
53618;SDS011;68717;53.040;18.488;2023-04-12T01:17:58;24.23;;;14.68;;
53618;SDS011;68717;53.040;18.488;2023-04-12T01:18:15;21.95;;;13.52;;
53618;SDS011;68717;53.040;18.488;2023-04-12T01:18:32;23.65;;;14.05;;
53618;SDS011;68717;53.040;18.488;2023-04-12T01:18:51;25.02;;;14.90;;
53618;SDS011;68717;53.040;18.488;2023-04-12T01:19:14;24.17;;;14.68;;
53618;SDS011;68717;53.040;18.488;2023-04-12T01:19:47;24.20;;;14.73;;
53618;SDS011;68717;53.040;18.488;2023-04-12T01:20:10;23.65;;;14.05;;
53618;SDS011;68717;53.040;18.488;2023-04-12T01:20:28;23.60;;;14.65;;
53618;SDS011;68717;53.040;18.488;2023-04-12T01:20:47;24.52;;;14.45;;
53618;SDS011;68717;53.040;18.488;2023-04-12T01:21:07;24.85;;;14.32;;
53618;SDS011;68717;53.040;18.488;2023-04-12T01:21:23;24.45;;;14.30;;
53618;SDS011;68717;53.040;18.488;2023-04-12T01:21:44;22.80;;;14.10;;
53618;SDS011;68717;53.040;18.488;2023-04-12T01:22:09;24.85;;;14.60;;
53618;SDS011;68717;53.040;18.488;2023-04-12T01:22:29;23.45;;;13.60;;
53618;SDS011;68717;53.040;18.488;2023-04-12T01:23:05;23.00;;;14.25;;
53618;SDS011;68717;53.040;18.488;2023-04-12T01:23:32;24.05;;;14.68;;
53618;SDS011;68717;53.040;18.488;2023-04-12T01:24:00;26.77;;;15.98;;
53618;SDS011;68717;53.040;18.488;2023-04-12T01:24:25;28.90;;;16.50;;
53618;SDS011;68717;53.040;18.488;2023-04-12T01:24:50;29.50;;;16.77;;
53618;SDS011;68717;53.040;18.488;2023-04-12T01:25:20;30.48;;;16.42;;
53618;SDS011;68717;53.040;18.488;2023-04-12T01:25:47;30.27;;;16.67;;
53618;SDS011;68717;53.040;18.488;2023-04-12T01:26:25;36.17;;;18.65;;
53618;SDS011;68717;53.040;18.488;2023-04-12T01:26:45;35.03;;;19.02;;
53618;SDS011;68717;53.040;18.488;2023-04-12T01:27:00;37.80;;;19.80;;